createdAt,value
2023-02-14T13:08:22.341Z,49.603271
2023-02-14T13:09:31.116Z,49.005127
2023-02-14T13:10:28.340Z,48.699951
2023-02-14T13:11:28.444Z,48.101807
2023-02-14T13:12:34.692Z,47.998047
2023-02-14T13:13:28.197Z,47.998047
2023-02-14T13:14:28.096Z,48.175049
2023-02-14T13:15:28.245Z,48.077393
2023-02-14T13:16:28.702Z,47.772217
2023-02-14T13:17:28.061Z,47.55249
2023-02-14T13:18:28.115Z,47.351074
2023-02-14T13:19:28.416Z,47.44873
2023-02-14T13:20:28.225Z,47.44873
2023-02-14T13:21:28.460Z,47.44873
2023-02-14T13:22:28.393Z,47.351074
2023-02-14T13:23:28.107Z,47.351074
2023-02-14T13:24:27.975Z,47.351074
2023-02-14T13:25:28.017Z,47.253418
2023-02-14T13:26:28.651Z,47.149658
2023-02-14T13:27:28.369Z,47.253418
2023-02-14T13:28:27.955Z,47.229004
2023-02-14T13:29:27.919Z,47.229004
2023-02-14T13:30:28.327Z,47.125244
2023-02-14T13:31:28.124Z,47.125244
2023-02-14T13:32:27.997Z,47.027588
2023-02-14T13:33:27.863Z,47.125244
2023-02-14T13:34:28.966Z,46.826172
2023-02-14T13:35:28.680Z,46.826172
2023-02-14T13:36:28.232Z,46.728516
2023-02-14T13:37:27.753Z,46.624756
2023-02-14T13:38:27.875Z,46.624756
2023-02-14T13:39:27.776Z,46.502686
2023-02-14T13:40:28.898Z,46.5271
2023-02-14T13:41:29.913Z,46.5271
2023-02-14T13:42:27.814Z,46.502686
2023-02-14T13:43:27.817Z,46.405029
2023-02-14T13:44:27.888Z,46.405029
2023-02-14T13:45:27.796Z,46.30127
2023-02-14T13:46:27.747Z,46.30127
2023-02-14T13:47:27.708Z,46.30127
2023-02-14T13:48:28.867Z,46.203613
2023-02-14T13:49:28.526Z,46.203613
2023-02-14T13:50:30.948Z,46.203613
2023-02-14T13:51:27.745Z,46.203613
2023-02-14T13:52:28.001Z,46.105957
2023-02-14T13:53:27.627Z,46.105957
2023-02-14T13:54:27.727Z,46.203613
2023-02-14T13:55:27.975Z,46.203613
2023-02-14T13:56:27.887Z,46.105957
2023-02-14T13:57:27.568Z,46.203613
2023-02-14T13:58:28.065Z,46.105957
2023-02-14T13:59:27.585Z,46.30127
2023-02-14T14:00:27.638Z,46.325684
2023-02-14T14:01:27.581Z,46.228027
2023-02-14T14:02:30.555Z,46.203613
2023-02-14T14:03:28.337Z,46.026611
